Time;durP1;ratioP1;P1;durP2;ratioP2;P2;SDS_P1;SDS_P2;PMS_P1;PMS_P2;Temp;Humidity;BMP_temperature;BMP_pressure;BME280_temperature;BME280_humidity;BME280_pressure;Samples;Min_cycle;Max_cycle;Signal;HPM_P1;HPM_P2
2023/10/13 00:01:52;;;;;;;13.75;5.30;;;;;;;17.88;100.00;101181.69;5046013;28;20050;-64
2023/10/13 00:04:22;;;;;;;12.27;5.40;;;;;;;17.90;100.00;101179.69;5049193;28;20064;-64
2023/10/13 00:06:48;;;;;;;14.05;7.10;;;;;;;17.88;100.00;101184.31;5039996;28;20083;-64
2023/10/13 00:09:15;;;;;;;14.10;7.32;;;;;;;17.85;100.00;101174.94;5046601;28;20045;-64
2023/10/13 00:11:47;;;;;;;15.02;7.07;;;;;;;17.86;100.00;101183.69;5044118;28;20033;-63
2023/10/13 00:14:16;;;;;;;8.43;5.60;;;;;;;17.87;100.00;101172.16;5045173;28;20069;-64
2023/10/13 00:16:43;;;;;;;9.85;5.07;;;;;;;17.87;100.00;101180.06;5043595;28;20091;-64
2023/10/13 00:19:10;;;;;;;15.07;6.95;;;;;;;17.87;100.00;101169.50;5048954;28;20396;-64
2023/10/13 00:21:38;;;;;;;16.88;6.88;;;;;;;17.84;100.00;101172.50;5044855;28;20124;-64
2023/10/13 00:24:12;;;;;;;13.55;7.00;;;;;;;17.82;100.00;101177.13;5052403;28;20030;-64
2023/10/13 00:26:37;;;;;;;11.82;7.20;;;;;;;17.79;100.00;101175.66;5032965;28;20546;-64
2023/10/13 00:31:36;;;;;;;12.00;6.38;;;;;;;17.83;100.00;101176.94;5045673;28;20041;-64
2023/10/13 00:34:09;;;;;;;10.90;4.68;;;;;;;17.85;100.00;101177.59;5041092;28;20596;-64
2023/10/13 00:36:35;;;;;;;14.43;6.57;;;;;;;17.87;100.00;101172.16;5039506;28;20547;-64
2023/10/13 00:39:03;;;;;;;10.82;6.60;;;;;;;17.89;100.00;101175.44;5042264;28;20041;-64
2023/10/13 00:41:51;;;;;;;10.20;6.28;;;;;;;17.90;100.00;101169.16;5040393;28;20473;-64
2023/10/13 00:44:17;;;;;;;17.63;7.95;;;;;;;17.89;100.00;101159.59;5040787;28;20124;-64
2023/10/13 00:46:45;;;;;;;16.10;8.20;;;;;;;17.89;100.00;101172.78;5045490;28;20131;-64
2023/10/13 00:49:15;;;;;;;13.25;8.20;;;;;;;17.87;100.00;101172.16;5041209;28;20123;-64
2023/10/13 00:51:47;;;;;;;15.93;8.00;;;;;;;17.86;100.00;101171.31;5044116;28;20060;-63
2023/10/13 00:54:13;;;;;;;18.10;9.13;;;;;;;17.86;100.00;101170.50;5045508;28;20429;-64
2023/10/13 00:56:49;;;;;;;14.05;7.13;;;;;;;17.89;100.00;101172.78;5043685;28;20392;-64
2023/10/13 00:59:19;;;;;;;15.68;8.57;;;;;;;17.87;100.00;101172.16;5047862;28;20036;-64
2023/10/13 01:01:45;;;;;;;17.05;9.07;;;;;;;17.87;100.00;101166.88;5047304;28;20039;-64
2023/10/13 01:04:15;;;;;;;17.20;8.93;;;;;;;17.89;100.00;101164.88;5045590;28;20033;-64
2023/10/13 01:06:40;;;;;;;15.23;7.35;;;;;;;17.94;100.00;101164.34;5044649;28;20033;-64
2023/10/13 01:11:42;;;;;;;15.30;7.30;;;;;;;17.94;100.00;101162.53;5040793;28;20512;-64
2023/10/13 01:14:11;;;;;;;17.65;8.63;;;;;;;17.93;100.00;101160.91;5036680;28;20033;-64
2023/10/13 01:16:45;;;;;;;15.57;8.30;;;;;;;17.96;100.00;101159.72;5046000;28;20480;-63
2023/10/13 01:19:24;;;;;;;20.42;7.57;;;;;;;18.00;100.00;101169.72;5046972;28;20033;-64
2023/10/13 01:21:56;;;;;;;13.65;7.30;;;;;;;18.02;100.00;101173.00;5044577;28;20044;-63
2023/10/13 01:24:24;;;;;;;13.15;7.28;;;;;;;17.99;100.00;101160.16;5048142;28;20124;-64
2023/10/13 01:26:51;;;;;;;15.68;7.88;;;;;;;17.90;100.00;101156.78;5047314;28;20388;-64
2023/10/13 01:29:18;;;;;;;15.98;7.82;;;;;;;17.85;100.00;101167.03;5048657;28;20032;-64
2023/10/13 01:31:46;;;;;;;12.32;7.03;;;;;;;17.88;100.00;101169.34;5052242;28;20110;-64
2023/10/13 01:34:14;;;;;;;14.65;7.38;;;;;;;17.92;100.00;101169.81;5048483;28;20025;-64
2023/10/13 01:36:40;;;;;;;19.67;8.38;;;;;;;17.95;100.00;101168.63;5049127;28;20036;-64
2023/10/13 01:39:10;;;;;;;17.80;7.28;;;;;;;17.90;100.00;101155.97;5049560;28;20039;-64
2023/10/13 01:41:39;;;;;;;19.13;8.30;;;;;;;17.88;100.00;101155.34;5045032;28;20059;-64
2023/10/13 01:44:04;;;;;;;13.30;7.28;;;;;;;17.87;100.00;101161.59;5046944;28;20499;-64
2023/10/13 01:46:30;;;;;;;13.55;7.20;;;;;;;17.87;100.00;101162.41;5049538;28;20128;-64
2023/10/13 01:48:57;;;;;;;19.17;7.30;;;;;;;17.90;100.00;101161.25;5051975;28;20091;-64
2023/10/13 01:51:23;;;;;;;13.35;7.07;;;;;;;17.94;100.00;101162.53;5049854;28;20036;-64
2023/10/13 01:53:56;;;;;;;15.85;6.90;;;;;;;17.96;100.00;101171.06;5047683;28;20028;-64
2023/10/13 01:56:23;;;;;;;12.90;6.45;;;;;;;17.96;100.00;101172.91;5048468;28;20026;-64
2023/10/13 01:58:49;;;;;;;12.02;6.28;;;;;;;17.95;100.00;101166.81;5050544;28;20025;-64
2023/10/13 02:01:26;;;;;;;12.10;6.53;;;;;;;17.96;100.00;101160.53;5053389;28;20089;-64
2023/10/13 02:04:01;;;;;;;12.75;6.40;;;;;;;18.00;100.00;101169.72;5044955;28;20033;-64
2023/10/13 02:06:32;;;;;;;15.00;7.10;;;;;;;18.03;100.00;101156.19;5050224;28;20034;-64
2023/10/13 02:09:03;;;;;;;12.50;6.70;;;;;;;18.06;100.00;101150.56;5050298;28;20029;-63
2023/10/13 02:11:30;;;;;;;14.23;7.15;;;;;;;18.08;100.00;101153.03;5045993;28;20140;-64
2023/10/13 02:13:57;;;;;;;13.82;6.57;;;;;;;18.05;100.00;101148.91;5046868;28;20035;-64
2023/10/13 02:16:25;;;;;;;14.00;7.53;;;;;;;18.05;100.00;101148.09;5043014;28;20044;-64
2023/10/13 02:18:51;;;;;;;16.98;6.47;;;;;;;18.05;100.00;101145.47;5053158;28;20050;-64
2023/10/13 02:21:17;;;;;;;14.27;6.50;;;;;;;18.04;100.00;101149.91;5048075;28;20078;-64
2023/10/13 02:23:46;;;;;;;10.93;6.75;;;;;;;18.05;100.00;101146.28;5042363;28;20029;-64
2023/10/13 02:26:15;;;;;;;13.45;6.15;;;;;;;18.05;100.00;101142.81;5053435;28;20116;-64
2023/10/13 02:28:44;;;;;;;13.15;6.10;;;;;;;18.02;100.00;101138.72;5049769;28;20486;-63
2023/10/13 02:31:11;;;;;;;10.10;6.03;;;;;;;18.03;100.00;101137.72;5053778;28;20032;-64
2023/10/13 02:33:44;;;;;;;10.90;5.53;;;;;;;18.02;100.00;101137.91;5052331;28;20483;-65
2023/10/13 02:36:12;;;;;;;12.90;6.10;;;;;;;17.98;100.00;101137.44;5042500;28;20084;-64
2023/10/13 02:41:19;;;;;;;11.43;6.20;;;;;;;17.90;100.00;101140.97;5046149;28;20040;-64
2023/10/13 02:43:45;;;;;;;13.68;6.20;;;;;;;17.88;100.00;101131.59;5049987;28;20116;-64
2023/10/13 02:46:10;;;;;;;17.35;7.43;;;;;;;17.89;100.00;101130.59;5052195;28;20111;-64
2023/10/13 02:48:45;;;;;;;10.63;5.75;;;;;;;17.88;100.00;101131.59;5049192;28;20040;-64
2023/10/13 02:51:18;;;;;;;14.70;6.07;;;;;;;17.86;100.00;101136.22;5043051;28;20037;-64
2023/10/13 02:53:48;;;;;;;12.35;6.50;;;;;;;17.85;100.00;101137.22;5042845;28;20790;-63
2023/10/13 02:56:14;;;;;;;11.00;6.53;;;;;;;17.86;100.00;101128.31;5044444;28;20032;-64
2023/10/13 02:58:45;;;;;;;13.95;6.22;;;;;;;17.86;100.00;101133.59;5056381;28;20032;-64
2023/10/13 03:01:17;;;;;;;12.15;6.55;;;;;;;17.86;100.00;101138.88;5049392;28;20131;-64
2023/10/13 03:03:50;;;;;;;13.00;6.03;;;;;;;17.88;100.00;101136.88;5047757;28;20037;-64
2023/10/13 03:06:16;;;;;;;18.05;7.28;;;;;;;17.90;100.00;101134.88;5049123;28;20517;-64
2023/10/13 03:08:43;;;;;;;12.50;6.63;;;;;;;17.90;100.00;101129.63;5048410;28;20064;-64
2023/10/13 03:11:10;;;;;;;12.98;5.97;;;;;;;17.89;100.00;101127.97;5047211;28;20170;-64
2023/10/13 03:13:36;;;;;;;10.68;5.70;;;;;;;17.87;100.00;101140.50;5048878;28;20032;-64
2023/10/13 03:16:11;;;;;;;11.05;5.60;;;;;;;17.88;100.00;101142.16;5051113;28;20051;-64
2023/10/13 03:18:38;;;;;;;10.47;5.73;;;;;;;17.84;100.00;101140.84;5046575;28;20091;-64
2023/10/13 03:21:03;;;;;;;13.45;6.03;;;;;;;17.82;100.00;101138.41;5044516;28;20341;-64
2023/10/13 03:23:38;;;;;;;10.27;5.80;;;;;;;17.80;100.00;101144.84;5053353;28;20033;-64
2023/10/13 03:26:09;;;;;;;21.30;6.30;;;;;;;17.78;100.00;101142.38;5039951;28;20029;-64
2023/10/13 03:28:37;;;;;;;11.88;5.85;;;;;;;17.78;100.00;101146.81;5040110;28;20313;-64
2023/10/13 03:31:03;;;;;;;13.40;5.88;;;;;;;17.76;100.00;101139.09;5044603;28;20025;-64
2023/10/13 03:33:32;;;;;;;14.48;6.68;;;;;;;17.75;100.00;101136.63;5048451;28;20041;-64
2023/10/13 03:36:05;;;;;;;11.50;5.93;;;;;;;17.76;100.00;101138.28;5045894;28;20560;-64
2023/10/13 03:38:36;;;;;;;10.85;5.95;;;;;;;17.74;100.00;101133.19;5043546;28;20083;-63
2023/10/13 03:41:12;;;;;;;9.35;5.78;;;;;;;17.74;100.00;101135.81;5048360;28;20033;-63
2023/10/13 03:43:45;;;;;;;13.10;5.85;;;;;;;17.72;100.00;101140.44;5047188;28;20040;-63
2023/10/13 03:46:10;;;;;;;8.18;4.57;;;;;;;17.67;100.00;101144.59;5045052;28;20033;-63
2023/10/13 03:48:55;;;;;;;14.20;5.35;;;;;;;17.64;100.00;101144.91;5049773;28;20051;-63
2023/10/13 03:51:21;;;;;;;14.40;5.53;;;;;;;17.57;100.00;101148.22;5044957;28;20440;-64
2023/10/13 03:53:53;;;;;;;11.75;5.47;;;;;;;17.55;100.00;101146.75;5049904;28;20029;-63
2023/10/13 03:56:38;;;;;;;11.27;6.43;;;;;;;17.51;100.00;101146.28;5045990;28;20073;-63
2023/10/13 03:59:06;;;;;;;12.38;5.07;;;;;;;17.52;100.00;101144.47;5040475;28;20366;-64
2023/10/13 04:01:43;;;;;;;13.88;6.03;;;;;;;17.52;100.00;101147.91;5046528;28;20411;-64
2023/10/13 04:04:15;;;;;;;14.38;6.18;;;;;;;17.53;100.00;101154.84;5040824;28;20026;-64
2023/10/13 04:17:15;;;;;;;10.02;5.57;;;;;;;17.52;100.00;101140.03;5044782;28;20510;-63
2023/10/13 04:28:34;;;;;;;14.27;5.78;;;;;;;17.46;100.00;101138.09;5030605;28;20105;-64
2023/10/13 04:31:11;;;;;;;10.52;5.55;;;;;;;17.48;100.00;101135.31;5033700;28;20090;-63
2023/10/13 04:33:56;;;;;;;9.27;5.22;;;;;;;17.46;100.00;101130.19;5033470;28;20036;-64
2023/10/13 04:39:43;;;;;;;11.55;5.05;;;;;;;17.45;100.00;101140.91;5035642;28;20112;-63
2023/10/13 04:49:49;;;;;;;18.30;5.93;;;;;;;17.37;100.00;101141.78;5033802;28;19913;-63
2023/10/13 04:55:16;;;;;;;10.80;5.10;;;;;;;17.35;100.00;101143.75;5033931;28;20048;-63
2023/10/13 04:57:49;;;;;;;10.75;5.50;;;;;;;17.35;100.00;101146.38;5030608;28;20483;-63
2023/10/13 06:29:57;;;;;;;9.45;5.18;;;;;;;17.49;100.00;101213.31;5063061;28;20186;-63
2023/10/13 06:32:26;;;;;;;19.75;5.63;;;;;;;17.51;100.00;101220.06;5069181;28;20028;-63
2023/10/13 06:35:04;;;;;;;14.15;5.20;;;;;;;17.53;100.00;101225.97;5068873;28;20055;-63
2023/10/13 06:37:33;;;;;;;10.38;5.78;;;;;;;17.53;100.00;101233.06;5049024;28;20033;-63
2023/10/13 06:40:22;;;;;;;15.43;6.22;;;;;;;17.54;100.00;101232.06;5045258;28;20036;-63
2023/10/13 06:42:48;;;;;;;14.50;4.90;;;;;;;17.56;100.00;101236.16;5048578;28;20107;-63
2023/10/13 06:45:16;;;;;;;12.75;5.07;;;;;;;17.59;100.00;101230.56;5051527;28;20033;-63
2023/10/13 06:47:45;;;;;;;14.02;5.30;;;;;;;17.62;100.00;101237.28;5050332;28;20084;-63
2023/10/13 06:50:19;;;;;;;10.95;5.22;;;;;;;17.66;100.00;101237.81;5046493;28;20052;-63
2023/10/13 06:52:48;;;;;;;13.02;5.75;;;;;;;17.67;100.00;101248.19;5050817;28;20125;-63
2023/10/13 06:55:17;;;;;;;9.07;5.30;;;;;;;17.68;100.00;101241.09;5044740;28;20492;-63
2023/10/13 06:57:43;;;;;;;10.98;5.20;;;;;;;17.68;100.00;101239.28;5050246;28;20110;-63
2023/10/13 07:00:19;;;;;;;10.27;4.55;;;;;;;17.70;100.00;101242.56;5050526;28;20052;-63
2023/10/13 07:02:45;;;;;;;;;;;;;;;17.73;100.00;101238.78;5051267;28;20051;-63
2023/10/13 07:05:11;;;;;;;9.95;4.13;;;;;;;17.77;100.00;101247.97;5048348;28;19916;-63
2023/10/13 07:07:39;;;;;;;9.95;4.65;;;;;;;17.74;99.90;101245.69;5050626;28;20392;-63
2023/10/13 07:10:11;;;;;;;13.27;5.57;;;;;;;17.73;100.00;101249.31;5050329;28;20025;-63
2023/10/13 07:12:38;;;;;;;11.65;5.13;;;;;;;17.73;99.84;101249.31;5044889;28;20055;-63
2023/10/13 07:17:45;;;;;;;13.82;5.43;;;;;;;17.85;99.46;101253.22;5047526;28;20086;-63
2023/10/13 07:23:17;;;;;;;14.70;5.68;;;;;;;17.95;98.65;101259.09;5053706;28;20131;-63
2023/10/13 07:25:53;;;;;;;12.70;5.47;;;;;;;18.02;98.58;101260.00;5049176;28;20056;-63
2023/10/13 07:28:18;;;;;;;8.85;5.43;;;;;;;18.09;97.91;101266.22;5044315;28;20492;-63
2023/10/13 07:33:22;;;;;;;10.13;4.68;;;;;;;18.20;97.86;101265.84;5043113;28;20072;-63
2023/10/13 07:36:15;;;;;;;9.65;4.68;;;;;;;18.27;97.38;101273.06;5043346;28;20024;-63
2023/10/13 07:38:48;;;;;;;12.30;5.07;;;;;;;18.28;96.77;101262.34;5044454;28;20063;-63
2023/10/13 07:41:15;;;;;;;10.48;5.38;;;;;;;18.31;97.19;101269.06;5047317;28;20109;-63
2023/10/13 07:43:41;;;;;;;11.23;5.15;;;;;;;18.35;96.51;101268.56;5049115;28;20040;-63
2023/10/13 07:46:09;;;;;;;11.38;5.32;;;;;;;18.36;96.47;101279.94;5040234;28;20115;-63
2023/10/13 07:48:37;;;;;;;11.98;5.40;;;;;;;18.34;96.60;101272.19;5049256;28;20033;-63
2023/10/13 07:51:05;;;;;;;13.35;5.30;;;;;;;18.41;96.84;101277.59;5050117;28;20033;-63
2023/10/13 07:53:39;;;;;;;10.50;5.30;;;;;;;18.49;95.88;101277.50;5042766;28;20033;-63
2023/10/13 07:56:05;;;;;;;11.15;4.75;;;;;;;18.52;95.75;101269.22;5050142;28;20063;-63
2023/10/13 07:58:34;;;;;;;11.85;5.50;;;;;;;18.53;95.87;101260.31;5047980;28;20028;-63
2023/10/13 08:01:16;;;;;;;10.65;5.88;;;;;;;18.62;95.91;101267.22;5038986;28;20029;-63
2023/10/13 08:03:44;;;;;;;13.63;6.68;;;;;;;18.69;96.17;101267.31;5048430;28;20029;-63
2023/10/13 08:08:38;;;;;;;21.30;7.07;;;;;;;18.81;95.98;101264.09;5041076;28;20052;-63
2023/10/13 08:11:11;;;;;;;13.68;6.32;;;;;;;18.86;95.52;101274.94;5047523;28;20113;-63
2023/10/13 08:13:46;;;;;;;13.68;6.43;;;;;;;18.96;95.22;101265.91;5042760;28;20029;-63
2023/10/13 08:16:21;;;;;;;16.77;7.47;;;;;;;19.06;95.37;101258.56;5048353;28;20077;-63
2023/10/13 08:18:50;;;;;;;10.85;6.57;;;;;;;19.13;95.53;101270.84;5037407;28;20507;-63
2023/10/13 08:21:31;;;;;;;18.50;7.93;;;;;;;19.17;95.70;101277.41;5042736;28;20057;-63
2023/10/13 08:23:58;;;;;;;17.73;8.80;;;;;;;19.20;95.56;101270.97;5049098;28;20094;-63
2023/10/13 08:34:38;;;;;;;23.00;9.80;;;;;;;19.52;95.22;101275.91;5045918;28;20032;-63
2023/10/13 08:37:59;;;;;;;19.40;8.53;;;;;;;19.60;94.40;101272.34;5047374;28;20025;-64
2023/10/13 08:48:07;;;;;;;24.70;10.23;;;;;;;19.80;95.23;101277.88;5041335;28;20493;-64
2023/10/13 08:53:31;;;;;;;30.02;13.07;;;;;;;19.83;96.76;101288.09;5043607;28;20048;-63
2023/10/13 09:06:47;;;;;;;31.88;14.50;;;;;;;19.97;98.42;101284.56;5042871;28;20112;-63
2023/10/13 09:09:34;;;;;;;31.35;14.93;;;;;;;19.96;99.04;101290.06;5044672;28;20392;-63
2023/10/13 09:12:24;;;;;;;40.15;14.07;;;;;;;20.04;98.52;101282.84;5041997;28;20108;-63
2023/10/13 09:14:57;;;;;;;29.70;13.93;;;;;;;20.18;98.50;101289.09;5046850;28;20078;-63
2023/10/13 09:25:33;;;;;;;29.80;14.90;;;;;;;20.41;98.27;101291.56;5045743;28;20041;-65
2023/10/13 09:28:00;;;;;;;37.55;14.43;;;;;;;20.55;97.85;101290.69;5049153;28;20040;-65
2023/10/13 09:30:30;;;;;;;33.13;14.38;;;;;;;20.61;97.50;101295.25;5046699;28;20029;-65
2023/10/13 09:33:04;;;;;;;29.17;13.93;;;;;;;20.63;97.00;101298.53;5048912;28;20115;-65
2023/10/13 09:35:33;;;;;;;27.35;12.82;;;;;;;20.67;97.44;101289.19;5045432;28;20503;-65
2023/10/13 09:38:03;;;;;;;30.20;13.57;;;;;;;20.67;97.35;101289.19;5046418;28;20032;-65
2023/10/13 09:43:07;;;;;;;30.98;14.32;;;;;;;20.56;97.77;101295.00;5049717;28;20044;-65
2023/10/13 09:45:43;;;;;;;36.85;14.13;;;;;;;20.57;97.58;101288.69;5044579;28;20351;-65
2023/10/13 09:48:26;;;;;;;29.35;13.90;;;;;;;20.64;97.88;101292.22;5050175;28;20049;-65
2023/10/13 09:50:56;;;;;;;29.38;12.77;;;;;;;20.74;97.48;101287.41;5052526;28;20040;-65
2023/10/13 09:53:23;;;;;;;31.23;14.43;;;;;;;20.82;97.16;101289.91;5045934;28;20033;-65
2023/10/13 09:56:23;;;;;;;34.10;15.23;;;;;;;20.83;95.23;101288.91;5045358;28;20025;-65
2023/10/13 09:59:00;;;;;;;32.63;14.70;;;;;;;20.84;96.46;101289.72;5039308;28;20457;-65
2023/10/13 10:01:31;;;;;;;31.27;13.90;;;;;;;20.76;95.47;101288.06;5043543;28;20482;-65
2023/10/13 10:04:23;;;;;;;36.63;13.63;;;;;;;20.77;94.51;101284.41;5045355;28;20554;-65
2023/10/13 10:07:00;;;;;;;30.58;14.05;;;;;;;20.70;94.97;101278.22;5044534;28;20037;-65
2023/10/13 10:09:37;;;;;;;35.38;15.15;;;;;;;20.68;95.34;101274.13;5050902;28;20120;-65
2023/10/13 10:12:21;;;;;;;34.20;13.70;;;;;;;20.71;95.63;101271.91;5040236;28;20456;-65
2023/10/13 10:15:33;;;;;;;34.63;14.75;;;;;;;20.77;95.66;101275.63;5042793;28;20186;-65
2023/10/13 10:18:00;;;;;;;30.05;13.90;;;;;;;20.87;96.06;101276.09;5045873;28;20081;-65
2023/10/13 10:20:44;;;;;;;31.95;14.10;;;;;;;20.97;95.29;101267.81;5044244;28;20037;-65
2023/10/13 10:23:21;;;;;;;30.63;13.55;;;;;;;20.99;95.45;101268.44;5040276;28;20087;-65
2023/10/13 10:25:51;;;;;;;33.90;14.73;;;;;;;21.07;95.50;101270.94;5045885;28;20028;-65
2023/10/13 10:28:19;;;;;;;36.58;14.52;;;;;;;21.10;95.03;101265.25;5040463;28;20033;-65
2023/10/13 10:30:44;;;;;;;30.27;14.77;;;;;;;21.12;94.38;101265.88;5051066;28;20082;-65
2023/10/13 10:33:18;;;;;;;31.27;13.88;;;;;;;21.13;94.96;101264.88;5046563;28;20040;-65
2023/10/13 10:35:46;;;;;;;28.85;13.60;;;;;;;21.14;94.83;101253.25;5042103;28;20392;-65
2023/10/13 10:38:32;;;;;;;29.10;13.30;;;;;;;21.18;94.84;101251.88;5039274;28;20033;-65
2023/10/13 10:41:06;;;;;;;25.17;12.18;;;;;;;21.21;94.75;101251.50;5042626;28;20357;-65
2023/10/13 10:43:45;;;;;;;34.65;14.38;;;;;;;21.22;94.68;101250.50;5053812;28;20559;-65
2023/10/13 10:46:41;;;;;;;28.88;12.50;;;;;;;21.20;94.43;101248.00;5046353;28;20037;-65
2023/10/13 10:49:08;;;;;;;28.90;13.10;;;;;;;21.14;94.57;101242.66;5050826;28;21280;-65
2023/10/13 10:51:43;;;;;;;31.83;13.32;;;;;;;21.11;94.68;101245.69;5051109;28;20037;-65
2023/10/13 10:54:18;;;;;;;33.13;13.77;;;;;;;21.12;94.56;101236.75;5049785;28;20032;-66
2023/10/13 10:56:44;;;;;;;29.17;12.77;;;;;;;21.19;94.71;101237.59;5049442;28;20116;-66
2023/10/13 10:59:19;;;;;;;28.30;13.55;;;;;;;21.22;93.81;101231.94;5050371;28;20108;-65
2023/10/13 11:01:50;;;;;;;;;;;;;;;21.22;92.56;101229.28;5051003;28;20033;-66
2023/10/13 11:07:01;;;;;;;28.42;13.30;;;;;;;21.29;93.55;101222.16;5048994;28;20594;-65
2023/10/13 11:09:45;;;;;;;28.83;13.15;;;;;;;21.32;93.87;101232.38;5047967;28;20052;-65
2023/10/13 11:12:15;;;;;;;24.35;12.68;;;;;;;21.30;94.15;101221.16;5045170;28;20512;-65
2023/10/13 11:14:54;;;;;;;29.95;13.43;;;;;;;21.30;94.38;101217.69;5048759;28;20029;-66
2023/10/13 11:17:26;;;;;;;27.90;13.40;;;;;;;21.33;94.22;101223.41;5049351;28;20032;-65
2023/10/13 11:19:52;;;;;;;27.02;11.88;;;;;;;21.32;93.91;101215.66;5046099;28;20037;-66
2023/10/13 11:25:10;;;;;;;;;;;;;;;21.17;93.49;101218.44;5046473;28;20052;-66
2023/10/13 11:30:19;;;;;;;24.85;12.65;;;;;;;21.07;96.16;101218.78;5049906;28;20512;-65
2023/10/13 11:32:46;;;;;;;31.40;12.68;;;;;;;21.02;96.44;101212.41;5048912;28;20056;-65
2023/10/13 11:35:20;;;;;;;25.50;13.15;;;;;;;20.98;96.52;101205.88;5041175;28;20035;-66
2023/10/13 11:37:56;;;;;;;22.80;12.32;;;;;;;20.94;96.92;101207.28;5051618;28;20108;-66
2023/10/13 11:40:59;;;;;;;32.08;13.60;;;;;;;20.86;97.73;101205.59;5048287;28;20033;-65
2023/10/13 11:43:23;;;;;;;28.83;12.90;;;;;;;20.80;98.14;101201.88;5049577;28;20139;-66
2023/10/13 11:46:55;;;;;;;30.45;12.75;;;;;;;20.79;97.53;101202.09;5049059;28;20029;-66
2023/10/13 11:48:43;;;;;;;27.75;12.38;;;;;;;20.78;98.04;101190.69;5047827;28;20049;-66
2023/10/13 11:51:25;;;;;;;24.33;12.35;;;;;;;20.77;98.17;101194.34;5050197;28;20586;-66
2023/10/13 11:53:51;;;;;;;26.65;12.65;;;;;;;20.75;98.06;101188.44;5045076;28;20393;-66
2023/10/13 11:56:20;;;;;;;29.67;12.63;;;;;;;20.77;97.95;101180.28;5050658;28;20448;-66
2023/10/13 11:58:46;;;;;;;24.55;13.35;;;;;;;20.78;98.62;101182.75;5041710;28;20064;-66
2023/10/13 12:11:46;;;;;;;24.08;11.32;;;;;;;21.06;97.08;101164.16;5031899;28;20068;-66
2023/10/13 12:16:53;;;;;;;27.92;11.02;;;;;;;21.30;95.34;101159.38;5044270;28;20045;-66
2023/10/13 12:19:23;;;;;;;23.98;11.95;;;;;;;21.35;94.59;101152.47;5043552;28;20483;-66
2023/10/13 12:21:55;;;;;;;21.70;10.82;;;;;;;21.42;93.86;101157.81;5045156;28;20110;-66
2023/10/13 12:27:19;;;;;;;28.08;11.80;;;;;;;21.55;93.35;101147.25;5045082;28;20041;-66
2023/10/13 12:29:49;;;;;;;24.15;11.95;;;;;;;21.59;93.46;101152.97;5048628;28;20028;-66
2023/10/13 12:32:20;;;;;;;26.85;12.05;;;;;;;21.57;93.30;101144.41;5047784;28;20029;-66
2023/10/13 12:51:21;;;;;;;22.67;10.27;;;;;;;21.90;91.38;101141.78;5042037;28;20170;-66
2023/10/13 12:53:51;;;;;;;21.98;10.98;;;;;;;21.96;91.30;101133.84;5041320;28;20052;-65
2023/10/13 12:56:25;;;;;;;22.83;10.98;;;;;;;22.01;91.22;101142.03;5037538;28;20099;-66
2023/10/13 12:58:51;;;;;;;28.08;13.10;;;;;;;21.92;90.92;101131.78;5038805;28;20037;-65
2023/10/13 13:01:25;;;;;;;23.75;11.68;;;;;;;21.89;91.08;101130.38;5039375;28;20037;-66
2023/10/13 13:03:55;;;;;;;21.45;11.68;;;;;;;21.89;91.47;101137.50;5034867;28;20064;-66
2023/10/13 13:06:26;;;;;;;20.25;10.75;;;;;;;21.82;91.75;101134.84;5041670;28;20075;-65
2023/10/13 13:08:56;;;;;;;27.35;11.45;;;;;;;21.76;92.29;101131.16;5043203;28;20036;-66
2023/10/13 13:11:22;;;;;;;23.85;11.30;;;;;;;21.81;91.36;101130.56;5034293;28;20037;-66
2023/10/13 13:13:48;;;;;;;26.80;12.25;;;;;;;21.77;91.18;101118.72;5042603;28;20098;-66
2023/10/13 13:16:23;;;;;;;20.88;11.85;;;;;;;21.74;91.54;101111.97;5043352;28;20041;-65
2023/10/13 13:18:54;;;;;;;22.67;10.95;;;;;;;21.76;91.54;101112.59;5038220;28;20103;-65
2023/10/13 13:21:22;;;;;;;21.70;10.48;;;;;;;21.75;91.47;101116.25;5049781;28;20059;-65
2023/10/13 13:23:49;;;;;;;25.88;11.35;;;;;;;21.68;91.63;101115.47;5044327;28;20036;-65
2023/10/13 13:26:17;;;;;;;24.02;10.27;;;;;;;21.62;92.51;101110.16;5041309;28;20031;-65
2023/10/13 13:28:50;;;;;;;20.75;10.40;;;;;;;21.58;92.35;101109.72;5046920;28;20037;-65
2023/10/13 13:31:19;;;;;;;19.05;10.15;;;;;;;21.57;92.38;101099.31;5045472;28;20029;-66
2023/10/13 13:33:44;;;;;;;23.65;12.05;;;;;;;21.61;92.27;101092.59;5039601;28;20421;-66
2023/10/13 13:36:16;;;;;;;17.17;10.27;;;;;;;21.68;92.19;101088.94;5047856;28;20033;-66
2023/10/13 13:38:46;;;;;;;22.35;10.70;;;;;;;21.77;91.65;101092.19;5042878;28;20041;-66
2023/10/13 13:41:17;;;;;;;19.10;9.68;;;;;;;21.89;91.07;101089.75;5041935;28;20033;-66
2023/10/13 13:46:18;;;;;;;23.00;10.80;;;;;;;22.09;88.82;101083.47;5040365;28;20053;-66
2023/10/13 13:48:47;;;;;;;20.33;9.82;;;;;;;22.16;88.86;101088.78;5028507;28;20461;-65
2023/10/13 13:51:19;;;;;;;18.45;9.35;;;;;;;22.13;88.71;101076.75;5036162;28;20419;-66
2023/10/13 13:53:45;;;;;;;22.50;9.73;;;;;;;22.05;89.40;101084.91;5043642;28;20086;-66
2023/10/13 13:56:16;;;;;;;21.35;10.35;;;;;;;21.92;89.39;101078.75;5042653;28;20021;-66
2023/10/13 13:58:45;;;;;;;22.77;9.68;;;;;;;21.74;90.14;101079.38;5046470;28;20118;-66
2023/10/13 14:01:15;;;;;;;21.02;10.43;;;;;;;21.61;90.92;101071.38;5046503;28;20028;-65
2023/10/13 14:03:45;;;;;;;20.30;10.38;;;;;;;21.55;91.21;101078.31;5045680;28;20091;-66
2023/10/13 14:06:24;;;;;;;22.10;10.15;;;;;;;21.49;91.41;101079.13;5046000;28;20055;-65
2023/10/13 14:08:51;;;;;;;27.52;10.65;;;;;;;21.46;91.55;101069.72;5043439;28;20037;-65
2023/10/13 14:14:12;;;;;;;21.63;9.95;;;;;;;21.34;91.76;101075.81;5034430;28;20056;-65
2023/10/13 14:16:47;;;;;;;23.95;10.20;;;;;;;21.30;92.30;101072.75;5043213;28;20033;-65
2023/10/13 14:19:28;;;;;;;17.73;9.95;;;;;;;21.25;92.44;101064.59;5044293;28;20045;-65
2023/10/13 14:21:57;;;;;;;20.85;9.27;;;;;;;21.21;92.63;101066.00;5041169;28;20033;-65
2023/10/13 14:24:56;;;;;;;17.77;8.73;;;;;;;21.19;93.20;101062.72;5020963;28;20036;-65
2023/10/13 14:27:19;;;;;;;21.02;9.35;;;;;;;21.14;93.36;101059.84;5038841;28;20032;-65
2023/10/13 14:29:45;;;;;;;20.05;10.27;;;;;;;21.12;93.14;101061.88;5034986;28;20064;-65
2023/10/13 14:32:15;;;;;;;23.52;9.68;;;;;;;21.11;93.23;101065.53;5049193;28;20146;-65
2023/10/13 14:34:45;;;;;;;22.27;11.65;;;;;;;21.11;92.50;101061.06;5049021;28;20103;-65
2023/10/13 14:37:14;;;;;;;18.88;9.95;;;;;;;21.10;92.73;101058.59;5045592;28;20060;-66
2023/10/13 14:39:40;;;;;;;18.40;8.63;;;;;;;21.09;93.23;101054.31;5047228;28;20036;-66
2023/10/13 14:42:06;;;;;;;18.75;9.95;;;;;;;21.08;93.28;101056.16;5037450;28;20037;-66
2023/10/13 14:44:32;;;;;;;18.05;8.77;;;;;;;21.06;93.34;101046.78;5046436;28;20059;-65
2023/10/13 14:46:58;;;;;;;21.55;9.13;;;;;;;21.07;93.76;101051.06;5027753;28;20084;-66
2023/10/13 14:49:24;;;;;;;23.00;10.93;;;;;;;21.13;93.89;101053.72;5045788;28;20037;-65
2023/10/13 14:51:49;;;;;;;23.20;10.40;;;;;;;21.16;93.42;101052.50;5047914;28;20047;-66
2023/10/13 14:54:15;;;;;;;22.67;9.25;;;;;;;21.18;93.04;101050.47;5051569;28;20117;-66
2023/10/13 14:56:44;;;;;;;17.50;9.93;;;;;;;21.19;92.51;101046.81;5041604;28;20037;-65
2023/10/13 14:59:16;;;;;;;16.90;9.30;;;;;;;21.22;92.14;101048.28;5047020;28;20032;-66
2023/10/13 15:01:42;;;;;;;19.52;11.20;;;;;;;21.22;92.27;101057.03;5048232;28;20443;-65
2023/10/13 15:04:08;;;;;;;26.00;11.23;;;;;;;21.23;92.45;101053.38;5038537;28;20480;-66
2023/10/13 15:06:33;;;;;;;19.70;9.85;;;;;;;21.22;92.46;101049.09;5049143;28;20037;-65
2023/10/13 15:09:00;;;;;;;25.48;10.93;;;;;;;21.22;93.22;101051.75;5050990;28;20025;-66
2023/10/13 15:11:27;;;;;;;21.00;10.85;;;;;;;21.19;93.62;101050.28;5050509;28;20040;-65
2023/10/13 15:13:56;;;;;;;24.55;10.90;;;;;;;21.18;93.87;101051.28;5042786;28;20029;-65
2023/10/13 15:16:26;;;;;;;27.52;11.48;;;;;;;21.16;94.19;101050.69;5050586;28;20029;-65
2023/10/13 15:18:53;;;;;;;17.35;9.75;;;;;;;21.14;94.30;101052.72;5048704;28;20075;-66